Time;durP1;ratioP1;P1;durP2;ratioP2;P2;SDS_P1;SDS_P2;PMS_P1;PMS_P2;Temp;Humidity;BMP_temperature;BMP_pressure;BME280_temperature;BME280_humidity;BME280_pressure;Samples;Min_cycle;Max_cycle;Signal;HPM_P1;HPM_P2
2022/03/31 00:00:43;;;;;;;9.75;6.08;;;;;;;1.31;71.92;99584.06;1684915;83;26582;-76
2022/03/31 00:03:16;;;;;;;13.85;5.95;;;;;;;1.31;72.07;99585.38;1690289;83;27491;-76
2022/03/31 00:05:42;;;;;;;9.58;6.42;;;;;;;1.30;72.14;99575.83;1694889;83;25927;-77
2022/03/31 00:08:14;;;;;;;8.10;5.50;;;;;;;1.28;72.17;99583.55;1681914;83;25371;-77
2022/03/31 00:10:52;;;;;;;10.18;5.42;;;;;;;1.28;72.32;99583.03;1699185;83;26384;-77
2022/03/31 00:13:22;;;;;;;10.65;6.30;;;;;;;1.28;71.91;99582.23;1693893;83;25803;-77
2022/03/31 00:15:49;;;;;;;9.23;5.72;;;;;;;1.27;71.98;99588.47;1687638;83;30825;-77
2022/03/31 00:18:17;;;;;;;10.93;6.20;;;;;;;1.26;72.24;99584.19;1700848;83;25902;-77
2022/03/31 00:20:43;;;;;;;9.38;6.08;;;;;;;1.24;72.28;99585.64;1693967;83;25724;-77
2022/03/31 00:23:10;;;;;;;11.60;7.00;;;;;;;1.23;72.17;99577.89;1695656;83;25806;-77
2022/03/31 00:25:36;;;;;;;10.13;5.95;;;;;;;1.24;72.23;99576.92;1683670;83;25896;-77
2022/03/31 00:28:03;;;;;;;8.33;5.12;;;;;;;1.23;72.35;99577.89;1684026;83;27469;-77
2022/03/31 00:30:31;;;;;;;11.25;5.80;;;;;;;1.21;72.29;99573.26;1688403;83;25703;-75
2022/03/31 00:32:58;;;;;;;10.65;6.65;;;;;;;1.19;72.25;99576.54;1692186;83;25744;-76
2022/03/31 00:35:25;;;;;;;8.45;5.92;;;;;;;1.18;72.29;99576.19;1693479;83;26260;-75
2022/03/31 00:37:52;;;;;;;12.47;6.08;;;;;;;1.19;72.39;99576.54;1677098;84;25796;-75
2022/03/31 00:40:20;;;;;;;9.65;6.03;;;;;;;1.18;72.28;99577.02;1693065;84;27401;-76
2022/03/31 00:42:51;;;;;;;11.73;5.62;;;;;;;1.17;72.40;99576.70;1670586;84;25870;-75
2022/03/31 00:45:23;;;;;;;8.98;5.72;;;;;;;1.14;72.80;99577.48;1685137;84;25983;-76
2022/03/31 00:47:51;;;;;;;10.65;6.67;;;;;;;1.10;72.79;99577.44;1703838;83;25847;-76
2022/03/31 00:50:18;;;;;;;10.13;5.37;;;;;;;1.04;73.08;99572.30;1701450;84;25896;-76
2022/03/31 00:52:45;;;;;;;9.23;5.40;;;;;;;1.02;73.35;99569.47;1685551;84;28266;-75
2022/03/31 00:55:15;;;;;;;10.23;6.55;;;;;;;1.01;73.69;99573.07;1691879;84;25332;-76
2022/03/31 00:57:43;;;;;;;13.00;5.10;;;;;;;0.97;73.44;99574.35;1693996;83;26490;-76
2022/03/31 01:00:11;;;;;;;7.80;5.35;;;;;;;0.96;73.63;99568.28;1716376;83;25832;-76
2022/03/31 01:02:41;;;;;;;11.12;5.92;;;;;;;0.94;73.74;99564.13;1682360;84;25975;-75
2022/03/31 01:05:09;;;;;;;9.20;6.13;;;;;;;0.87;74.40;99565.22;1671808;84;27511;-76
2022/03/31 01:07:37;;;;;;;9.38;5.75;;;;;;;0.87;74.40;99565.22;1695703;83;26109;-76
2022/03/31 01:10:06;;;;;;;7.78;5.03;;;;;;;0.85;74.51;99570.30;1689298;83;26023;-76
2022/03/31 01:12:34;;;;;;;9.23;5.22;;;;;;;0.82;74.72;99562.19;1680989;84;25828;-76
2022/03/31 01:15:11;;;;;;;10.40;6.10;;;;;;;0.78;74.53;99561.67;1691971;83;25842;-77
2022/03/31 01:17:40;;;;;;;9.15;5.55;;;;;;;0.78;74.29;99560.36;1684918;84;27470;-76
2022/03/31 01:20:10;;;;;;;12.05;6.40;;;;;;;0.79;74.94;99558.55;1684810;83;26526;-77
2022/03/31 01:22:37;;;;;;;12.25;6.65;;;;;;;0.74;74.65;99552.89;1688339;83;25966;-76
2022/03/31 01:25:07;;;;;;;8.45;5.87;;;;;;;0.69;75.00;99555.98;1699991;83;26221;-76
2022/03/31 01:27:38;;;;;;;11.18;6.03;;;;;;;0.66;75.51;99555.45;1682677;84;26165;-77
2022/03/31 01:30:13;;;;;;;11.35;6.10;;;;;;;0.61;75.50;99557.22;1700610;83;27544;-76
2022/03/31 01:32:40;;;;;;;8.38;5.33;;;;;;;0.57;75.31;99557.17;1676786;84;25820;-76
2022/03/31 01:35:08;;;;;;;13.28;6.30;;;;;;;0.57;75.11;99551.91;1684139;84;25885;-76
2022/03/31 01:37:34;;;;;;;10.80;6.15;;;;;;;0.57;75.56;99559.81;1679763;84;25799;-76
2022/03/31 01:40:00;;;;;;;6.70;4.37;;;;;;;0.57;75.22;99560.30;1692089;84;26016;-76
2022/03/31 01:42:28;;;;;;;11.53;5.97;;;;;;;0.57;76.08;99553.70;1689658;84;28368;-77
2022/03/31 01:44:54;;;;;;;10.18;5.78;;;;;;;0.53;75.86;99558.94;1684642;83;25770;-77
2022/03/31 01:47:20;;;;;;;8.88;5.08;;;;;;;0.50;75.98;99560.54;1707153;83;26616;-76
2022/03/31 01:49:47;;;;;;;11.80;6.08;;;;;;;0.47;75.85;99553.75;1684939;83;25853;-76
2022/03/31 01:52:13;;;;;;;9.30;5.83;;;;;;;0.50;75.64;99553.95;1704513;83;25765;-76
2022/03/31 01:54:39;;;;;;;12.00;6.35;;;;;;;0.50;75.61;99553.95;1705475;83;28302;-76
2022/03/31 01:57:07;;;;;;;13.70;6.95;;;;;;;0.50;75.70;99556.11;1707901;83;25823;-76
2022/03/31 01:59:43;;;;;;;10.35;6.00;;;;;;;0.48;75.93;99556.74;1709570;83;25894;-77
2022/03/31 02:02:10;;;;;;;9.38;4.72;;;;;;;0.47;75.64;99555.07;1719167;83;26493;-76
2022/03/31 02:04:36;;;;;;;10.45;5.72;;;;;;;0.47;76.19;99562.17;1715175;83;25546;-77
2022/03/31 02:07:03;;;;;;;8.00;5.35;;;;;;;0.43;76.08;99555.03;1716185;83;28353;-76
2022/03/31 02:09:30;;;;;;;10.65;6.30;;;;;;;0.42;76.21;99563.92;1710567;83;25813;-76
2022/03/31 02:11:57;;;;;;;13.75;6.03;;;;;;;0.42;76.30;99562.61;1708209;83;25934;-76
2022/03/31 02:14:24;;;;;;;8.93;5.50;;;;;;;0.39;76.18;99556.78;1697267;83;25922;-76
2022/03/31 02:16:50;;;;;;;9.50;6.08;;;;;;;0.38;76.11;99559.09;1714205;83;26152;-77
2022/03/31 02:19:18;;;;;;;8.95;5.25;;;;;;;0.37;76.13;99552.99;1708763;83;27514;-77
2022/03/31 02:21:46;;;;;;;8.73;5.30;;;;;;;0.37;76.32;99560.89;1695770;83;25687;-77
2022/03/31 02:24:14;;;;;;;9.63;5.95;;;;;;;0.35;76.60;99554.11;1708790;83;25794;-77
2022/03/31 02:26:41;;;;;;;7.30;5.15;;;;;;;0.33;76.32;99558.70;1708488;83;25812;-77
2022/03/31 02:29:07;;;;;;;9.75;5.85;;;;;;;0.32;76.52;99562.33;1697991;83;25804;-77
2022/03/31 02:31:34;;;;;;;12.50;6.25;;;;;;;0.31;76.49;99565.44;1696293;83;27474;-76
2022/03/31 02:34:00;;;;;;;11.57;7.12;;;;;;;0.29;76.69;99554.22;1703251;83;25844;-77
2022/03/31 02:36:27;;;;;;;8.45;5.58;;;;;;;0.28;76.55;99556.50;1696047;83;25861;-77
2022/03/31 02:38:53;;;;;;;10.15;6.67;;;;;;;0.29;76.43;99561.29;1696245;83;26247;-77
2022/03/31 02:41:19;;;;;;;9.10;5.78;;;;;;;0.31;76.39;99558.86;1699659;83;25907;-77
2022/03/31 02:43:46;;;;;;;10.30;5.97;;;;;;;0.32;76.63;99554.42;1695875;83;27704;-77
2022/03/31 02:46:13;;;;;;;10.13;6.10;;;;;;;0.32;76.21;99551.79;1695873;83;25820;-77
2022/03/31 02:48:39;;;;;;;11.22;6.10;;;;;;;0.32;76.15;99552.59;1696432;83;25756;-77
2022/03/31 02:51:06;;;;;;;9.05;6.17;;;;;;;0.33;75.98;99556.06;1695893;83;26243;-77
2022/03/31 02:56:17;;;;;;;11.18;5.60;;;;;;;0.32;75.89;99549.96;1685381;83;28647;-77
2022/03/31 02:58:43;;;;;;;10.38;5.15;;;;;;;0.33;76.05;99550.80;1688159;83;25811;-78
2022/03/31 03:01:10;;;;;;;9.13;6.58;;;;;;;0.30;76.07;99553.74;1688176;83;25729;-77
2022/03/31 03:03:36;;;;;;;8.18;5.17;;;;;;;0.29;75.73;99550.27;1686111;83;26059;-77
2022/03/31 03:06:03;;;;;;;7.75;5.85;;;;;;;0.28;75.78;99559.14;1685362;83;25832;-77
2022/03/31 03:08:31;;;;;;;9.33;5.55;;;;;;;0.27;75.65;99555.34;1685673;84;28275;-77
2022/03/31 03:10:57;;;;;;;9.20;5.85;;;;;;;0.28;75.62;99555.70;1685515;83;25752;-77
2022/03/31 03:13:24;;;;;;;11.25;5.55;;;;;;;0.26;75.39;99555.82;1686467;83;25907;-77
2022/03/31 03:15:50;;;;;;;9.25;5.62;;;;;;;0.28;75.32;99547.80;1691197;83;26143;-77
2022/03/31 03:18:18;;;;;;;10.50;5.42;;;;;;;0.27;75.28;99554.02;1685388;83;26462;-77
2022/03/31 03:20:45;;;;;;;7.62;5.22;;;;;;;0.25;75.22;99552.86;1688588;83;27658;-77
2022/03/31 03:23:12;;;;;;;11.20;5.65;;;;;;;0.25;75.28;99552.03;1699960;83;25757;-77
2022/03/31 03:25:38;;;;;;;7.08;4.50;;;;;;;0.24;74.87;99556.45;1697473;83;25892;-77
2022/03/31 03:28:04;;;;;;;9.38;4.60;;;;;;;0.26;75.01;99557.62;1690024;83;26029;-77
2022/03/31 03:30:30;;;;;;;9.48;5.45;;;;;;;0.24;74.80;99552.51;1698377;83;26502;-77
2022/03/31 03:32:57;;;;;;;9.30;4.72;;;;;;;0.23;74.66;99556.13;1692771;83;28414;-77
2022/03/31 03:35:23;;;;;;;8.60;5.37;;;;;;;0.21;74.66;99555.45;1687971;83;26167;-75
2022/03/31 03:37:49;;;;;;;10.30;5.12;;;;;;;0.21;74.64;99555.93;1688002;83;25813;-75
2022/03/31 03:40:16;;;;;;;8.55;5.45;;;;;;;0.19;74.44;99557.41;1700272;83;26691;-75
2022/03/31 03:42:43;;;;;;;9.35;5.28;;;;;;;0.16;74.53;99553.73;1693128;83;25840;-75
2022/03/31 03:45:11;;;;;;;6.30;3.52;;;;;;;0.14;74.64;99558.80;1686146;83;27152;-75
2022/03/31 03:47:38;;;;;;;10.88;4.97;;;;;;;0.11;74.78;99566.50;1691642;83;26360;-75
2022/03/31 03:50:06;;;;;;;8.98;5.15;;;;;;;0.08;74.57;99564.17;1687794;83;25799;-75
2022/03/31 03:52:33;;;;;;;6.10;4.60;;;;;;;0.10;74.49;99569.28;1689466;83;25859;-76
2022/03/31 03:54:59;;;;;;;8.15;5.05;;;;;;;0.08;74.54;99568.60;1700227;83;25841;-76
2022/03/31 03:57:25;;;;;;;10.48;6.15;;;;;;;0.06;74.55;99567.44;1696791;83;27986;-76
2022/03/31 03:59:52;;;;;;;10.65;5.42;;;;;;;0.05;74.51;99568.40;1714168;83;26110;-76
2022/03/31 04:02:19;;;;;;;8.78;5.47;;;;;;;0.05;74.50;99567.56;1695813;83;25803;-76
2022/03/31 04:04:45;;;;;;;6.97;5.03;;;;;;;0.03;74.49;99565.08;1695337;83;25821;-76
2022/03/31 04:07:11;;;;;;;12.43;4.65;;;;;;;0.02;74.52;99570.50;1702161;83;26470;-76
2022/03/31 04:09:37;;;;;;;11.78;4.87;;;;;;;0.00;74.63;99570.66;1695340;83;27477;-76
2022/03/31 04:12:04;;;;;;;10.03;4.80;;;;;;;-0.02;74.71;99570.78;1698426;83;25988;-76
2022/03/31 04:14:31;;;;;;;8.48;4.87;;;;;;;-0.02;74.44;99573.89;1702521;83;26011;-76
2022/03/31 04:16:57;;;;;;;8.10;4.92;;;;;;;-0.03;74.70;99579.67;1700010;83;26041;-76
2022/03/31 04:19:23;;;;;;;9.10;4.50;;;;;;;-0.06;74.72;99577.31;1707344;83;25761;-76
2022/03/31 04:21:49;;;;;;;9.90;4.83;;;;;;;-0.07;74.58;99581.41;1695553;83;27467;-76
2022/03/31 04:24:15;;;;;;;6.45;4.70;;;;;;;-0.07;74.65;99580.09;1703367;83;25787;-76
2022/03/31 04:26:42;;;;;;;10.45;5.60;;;;;;;-0.10;74.57;99584.31;1715757;82;26094;-75
2022/03/31 04:29:10;;;;;;;7.00;4.28;;;;;;;-0.12;74.58;99581.00;1721220;83;25749;-75
2022/03/31 04:31:41;;;;;;;10.93;5.45;;;;;;;-0.14;74.77;99581.64;1708245;83;26354;-75
2022/03/31 04:34:08;;;;;;;10.30;5.08;;;;;;;-0.15;74.65;99584.75;1708219;83;27505;-76
2022/03/31 04:36:35;;;;;;;7.08;4.53;;;;;;;-0.17;74.68;99579.31;1696375;83;25323;-76
2022/03/31 04:39:02;;;;;;;9.95;4.92;;;;;;;-0.17;74.68;99585.89;1712466;83;25866;-76
2022/03/31 04:41:30;;;;;;;9.00;4.85;;;;;;;-0.19;74.73;99589.12;1701159;83;26478;-76
2022/03/31 04:43:56;;;;;;;8.80;4.85;;;;;;;-0.20;74.78;99587.00;1701747;83;25787;-76
2022/03/31 04:46:22;;;;;;;7.67;4.37;;;;;;;-0.20;74.80;99587.48;1709047;83;28241;-76
2022/03/31 04:48:48;;;;;;;5.78;4.25;;;;;;;-0.21;74.96;99585.33;1695128;83;25952;-75
2022/03/31 04:51:15;;;;;;;7.90;5.03;;;;;;;-0.23;74.84;99592.53;1706848;83;25862;-76
2022/03/31 04:53:41;;;;;;;8.13;4.40;;;;;;;-0.25;74.95;99587.91;1705453;83;26200;-76
2022/03/31 04:56:07;;;;;;;9.28;4.87;;;;;;;-0.24;74.80;99590.05;1695676;83;25741;-76
2022/03/31 04:58:36;;;;;;;7.25;4.05;;;;;;;-0.25;74.93;99594.96;1699372;83;27487;-76
2022/03/31 05:01:01;;;;;;;10.60;5.28;;;;;;;-0.26;74.92;99598.58;1699084;83;25750;-76
2022/03/31 05:03:28;;;;;;;7.95;4.85;;;;;;;-0.25;74.79;99601.06;1696814;83;25788;-76
2022/03/31 05:05:54;;;;;;;8.53;4.72;;;;;;;-0.25;74.83;99603.69;1690409;83;26521;-76
2022/03/31 05:08:20;;;;;;;7.55;4.90;;;;;;;-0.25;74.88;99604.17;1695420;82;25825;-76
2022/03/31 05:10:46;;;;;;;6.97;4.72;;;;;;;-0.27;75.31;99604.32;1710005;82;27680;-76
2022/03/31 05:13:13;;;;;;;8.00;4.37;;;;;;;-0.28;75.21;99614.48;1725498;82;25925;-76
2022/03/31 05:15:39;;;;;;;10.68;4.62;;;;;;;-0.28;75.68;99607.10;1730487;82;25749;-76
2022/03/31 05:18:06;;;;;;;9.75;4.78;;;;;;;-0.29;75.39;99619.90;1715529;82;26529;-76
2022/03/31 05:20:32;;;;;;;7.42;5.12;;;;;;;-0.29;75.51;99615.95;1697702;83;25914;-75
2022/03/31 05:22:58;;;;;;;10.45;6.15;;;;;;;-0.30;75.62;99615.12;1693470;83;27424;-75
2022/03/31 05:25:25;;;;;;;10.72;5.25;;;;;;;-0.29;75.64;99617.27;1693184;83;25830;-76
2022/03/31 05:27:51;;;;;;;10.88;4.45;;;;;;;-0.27;75.78;99629.80;1684734;83;26301;-76
2022/03/31 05:30:19;;;;;;;10.40;5.12;;;;;;;-0.25;75.79;99631.80;1708738;83;25855;-75
2022/03/31 05:32:47;;;;;;;10.23;5.25;;;;;;;-0.25;75.81;99627.85;1695236;83;25655;-76
2022/03/31 05:35:14;;;;;;;8.83;4.92;;;;;;;-0.21;75.73;99633.17;1691775;83;28226;-75
2022/03/31 05:37:41;;;;;;;7.92;4.50;;;;;;;-0.18;75.80;99634.22;1692748;82;25798;-76
2022/03/31 05:40:10;;;;;;;10.32;5.45;;;;;;;-0.17;75.63;99641.96;1706161;82;25308;-76
2022/03/31 05:42:37;;;;;;;10.58;5.15;;;;;;;-0.15;75.82;99640.52;1691001;83;25872;-76
2022/03/31 05:45:06;;;;;;;12.58;6.62;;;;;;;-0.12;75.70;99643.69;1689344;83;26539;-76
2022/03/31 05:47:32;;;;;;;9.98;5.45;;;;;;;-0.05;75.82;99646.59;1687148;83;28277;-76
2022/03/31 05:49:59;;;;;;;10.93;5.70;;;;;;;-0.01;75.78;99652.74;1688720;83;26360;-76
2022/03/31 05:52:25;;;;;;;7.28;5.15;;;;;;;0.01;75.82;99653.91;1700018;83;26317;-76
2022/03/31 05:54:51;;;;;;;9.40;5.17;;;;;;;0.03;75.69;99649.80;1680052;83;26430;-76
2022/03/31 05:57:17;;;;;;;9.30;5.75;;;;;;;0.06;75.79;99656.95;1680323;83;25971;-76
2022/03/31 05:59:44;;;;;;;7.22;3.90;;;;;;;0.10;75.77;99646.47;1691580;83;27503;-76
2022/03/31 06:02:11;;;;;;;9.08;5.33;;;;;;;0.15;75.82;99653.95;1693689;83;25756;-75
2022/03/31 06:04:40;;;;;;;7.78;5.40;;;;;;;0.21;75.63;99659.95;1687217;83;25783;-76
2022/03/31 06:07:07;;;;;;;11.33;5.75;;;;;;;0.26;75.56;99653.27;1679618;83;26404;-75
2022/03/31 06:09:33;;;;;;;9.60;4.90;;;;;;;0.32;75.46;99657.14;1694856;83;26533;-76
2022/03/31 06:11:59;;;;;;;8.70;4.85;;;;;;;0.37;75.46;99651.77;1694461;83;27448;-76
2022/03/31 06:14:26;;;;;;;10.55;6.10;;;;;;;0.41;75.49;99653.61;1703751;83;26493;-76
2022/03/31 06:16:52;;;;;;;8.13;5.42;;;;;;;0.41;75.28;99656.25;1685843;83;25825;-76
2022/03/31 06:19:18;;;;;;;9.83;5.80;;;;;;;0.45;75.41;99654.50;1697861;83;25953;-76
2022/03/31 06:21:45;;;;;;;6.60;4.42;;;;;;;0.52;75.50;99652.11;1694502;83;25753;-76
2022/03/31 06:24:11;;;;;;;8.68;4.50;;;;;;;0.57;75.48;99652.03;1688046;83;28317;-76
2022/03/31 06:26:38;;;;;;;8.55;4.85;;;;;;;0.65;75.36;99655.23;1674256;83;25930;-76
2022/03/31 06:29:06;;;;;;;7.33;4.67;;;;;;;0.66;75.06;99657.72;1688599;83;26442;-76
2022/03/31 06:31:32;;;;;;;10.48;5.50;;;;;;;0.68;75.13;99656.28;1684513;84;25807;-76
2022/03/31 06:33:58;;;;;;;8.58;5.37;;;;;;;0.70;75.08;99655.64;1690897;83;26598;-76
2022/03/31 06:36:25;;;;;;;10.48;5.20;;;;;;;0.72;75.12;99655.00;1708770;83;27456;-76
2022/03/31 06:38:51;;;;;;;9.80;4.78;;;;;;;0.76;75.23;99659.84;1686929;83;26034;-76
2022/03/31 06:41:18;;;;;;;12.10;5.78;;;;;;;0.82;74.92;99661.04;1685756;83;25765;-76
2022/03/31 06:43:46;;;;;;;7.92;6.22;;;;;;;0.87;74.62;99655.33;1685041;83;25749;-76
2022/03/31 06:46:14;;;;;;;14.07;5.45;;;;;;;0.89;74.85;99650.25;1682892;83;26493;-76
2022/03/31 06:48:43;;;;;;;9.10;5.70;;;;;;;0.96;74.77;99649.17;1682140;83;27641;-76
2022/03/31 06:51:11;;;;;;;9.15;4.95;;;;;;;1.05;74.81;99652.24;1696868;83;25929;-76
2022/03/31 06:53:38;;;;;;;9.73;5.87;;;;;;;1.10;74.83;99660.52;1688788;83;25802;-76
2022/03/31 06:56:09;;;;;;;8.80;5.35;;;;;;;1.12;74.59;99653.28;1692806;83;25815;-76
2022/03/31 06:58:35;;;;;;;10.45;5.87;;;;;;;1.19;74.83;99651.70;1695312;83;25901;-76
2022/03/31 07:01:02;;;;;;;8.73;5.15;;;;;;;1.28;74.77;99654.77;1697519;83;28425;-76
2022/03/31 07:03:28;;;;;;;7.78;4.72;;;;;;;1.35;74.57;99654.00;1689408;83;26687;-76
2022/03/31 07:05:55;;;;;;;7.80;5.33;;;;;;;1.37;74.26;99648.56;1688344;83;25857;-76
2022/03/31 07:08:23;;;;;;;11.22;5.20;;;;;;;1.42;74.36;99652.42;1695109;83;25881;-76
2022/03/31 07:10:49;;;;;;;6.65;4.90;;;;;;;1.49;74.29;99647.38;1673180;84;25891;-76
2022/03/31 07:13:16;;;;;;;8.35;5.30;;;;;;;1.56;73.99;99651.88;1688273;84;28087;-76
2022/03/31 07:15:43;;;;;;;7.33;4.67;;;;;;;1.62;73.71;99650.45;1690249;83;25901;-80
2022/03/31 07:18:10;;;;;;;12.37;4.90;;;;;;;1.73;73.79;99662.58;1692389;84;25758;-76
2022/03/31 07:20:36;;;;;;;8.03;4.70;;;;;;;1.81;73.38;99659.99;1691445;84;26613;-76
2022/03/31 07:23:03;;;;;;;8.13;3.42;;;;;;;1.84;72.83;99657.86;1703050;83;25793;-76
2022/03/31 07:25:30;;;;;;;8.15;5.03;;;;;;;1.87;72.63;99664.17;1700892;83;28094;-76
2022/03/31 07:27:56;;;;;;;6.25;4.65;;;;;;;1.89;72.74;99669.28;1684425;83;25973;-76
2022/03/31 07:30:24;;;;;;;8.20;4.75;;;;;;;1.95;72.74;99658.94;1696317;83;25942;-76
2022/03/31 07:32:58;;;;;;;9.38;5.03;;;;;;;2.01;72.41;99658.31;1689698;83;25974;-76
2022/03/31 07:35:29;;;;;;;8.88;4.67;;;;;;;2.05;72.17;99666.25;1687537;83;25836;-76
2022/03/31 07:37:56;;;;;;;;;;;;;;;2.11;72.23;99667.47;1691903;83;27481;-76
2022/03/31 07:40:24;;;;;;;10.75;4.65;;;;;;;2.17;71.84;99663.71;1700749;83;25776;-76
2022/03/31 07:42:51;;;;;;;6.40;5.20;;;;;;;2.16;71.40;99663.36;1671822;84;26044;-76
2022/03/31 07:45:19;;;;;;;8.70;4.75;;;;;;;2.21;71.32;99667.70;1694957;83;26528;-76
2022/03/31 07:47:46;;;;;;;9.70;4.97;;;;;;;2.22;71.12;99668.53;1700329;83;25873;-76
2022/03/31 07:50:16;;;;;;;10.03;5.17;;;;;;;2.25;71.36;99666.88;1705085;83;28295;-76
2022/03/31 07:52:44;;;;;;;12.35;5.35;;;;;;;2.31;71.05;99663.61;1721143;82;25893;-76
2022/03/31 07:55:13;;;;;;;7.40;4.65;;;;;;;2.35;70.07;99676.35;1717877;83;25813;-76
2022/03/31 07:57:40;;;;;;;6.78;4.20;;;;;;;2.33;70.64;99668.27;1705309;83;26605;-76
2022/03/31 08:00:11;;;;;;;9.05;4.83;;;;;;;2.42;70.64;99678.39;1691994;83;25818;-76
2022/03/31 08:02:42;;;;;;;9.88;4.72;;;;;;;2.47;70.12;99680.05;1684402;83;27563;-76
2022/03/31 08:05:10;;;;;;;8.70;4.12;;;;;;;2.49;69.97;99678.91;1688290;84;25883;-76
2022/03/31 08:07:37;;;;;;;8.05;4.28;;;;;;;2.57;70.32;99690.00;1686797;84;25817;-76
2022/03/31 08:10:05;;;;;;;8.58;4.65;;;;;;;2.62;69.92;99675.83;1697298;84;25830;-76
2022/03/31 08:12:34;;;;;;;8.08;4.58;;;;;;;2.68;70.04;99689.24;1686525;84;25874;-76
2022/03/31 08:15:01;;;;;;;6.95;4.15;;;;;;;2.78;70.00;99688.61;1699024;84;27456;-76
2022/03/31 08:17:27;;;;;;;7.20;4.30;;;;;;;2.89;69.86;99687.50;1684634;83;25677;-76
2022/03/31 08:19:53;;;;;;;10.38;4.85;;;;;;;2.97;69.31;99686.23;1681357;83;26561;-76
2022/03/31 08:22:20;;;;;;;6.10;4.50;;;;;;;3.02;68.57;99689.20;1678733;84;25840;-76
2022/03/31 08:24:46;;;;;;;5.90;4.15;;;;;;;3.04;68.98;99689.86;1669706;84;25929;-76
2022/03/31 08:27:12;;;;;;;11.15;4.83;;;;;;;3.09;67.76;99682.28;1688295;83;27543;-76
2022/03/31 08:29:39;;;;;;;7.03;4.37;;;;;;;3.10;67.53;99674.70;1692637;83;26581;-76
2022/03/31 08:32:08;;;;;;;7.72;4.30;;;;;;;3.17;67.41;99690.72;1690890;83;25782;-76
2022/03/31 08:34:36;;;;;;;7.58;4.70;;;;;;;3.21;67.10;99680.98;1692906;83;26073;-76
2022/03/31 08:37:03;;;;;;;5.70;3.85;;;;;;;3.28;67.19;99690.42;1693183;83;25315;-76
2022/03/31 08:39:29;;;;;;;5.53;4.00;;;;;;;3.35;66.42;99704.67;1693347;83;28682;-76
2022/03/31 08:41:56;;;;;;;7.10;3.42;;;;;;;3.37;66.02;99704.02;1691175;82;26304;-76
2022/03/31 08:44:23;;;;;;;5.42;3.65;;;;;;;3.39;65.25;99703.35;1702427;82;26202;-76
2022/03/31 08:46:50;;;;;;;9.08;4.33;;;;;;;3.41;65.88;99707.98;1693237;83;25844;-76
2022/03/31 08:49:16;;;;;;;4.95;3.62;;;;;;;3.48;64.91;99691.80;1686691;83;25948;-76
2022/03/31 08:51:44;;;;;;;7.05;4.15;;;;;;;3.51;64.15;99686.16;1684724;83;27426;-77
2022/03/31 08:54:11;;;;;;;7.28;4.62;;;;;;;3.56;65.26;99671.94;1681305;83;26601;-76
2022/03/31 08:56:38;;;;;;;5.95;3.80;;;;;;;3.65;64.82;99676.25;1705527;82;25920;-77
2022/03/31 08:59:07;;;;;;;5.97;3.70;;;;;;;3.74;65.07;99674.75;1701090;82;25914;-76
2022/03/31 09:01:34;;;;;;;7.15;3.80;;;;;;;3.83;63.43;99685.68;1684647;83;25332;-76
2022/03/31 09:04:00;;;;;;;11.12;4.60;;;;;;;3.84;63.13;99683.38;1699598;83;28253;-76
2022/03/31 09:06:31;;;;;;;6.17;4.25;;;;;;;3.84;62.61;99684.70;1696044;83;25888;-76
2022/03/31 09:08:59;;;;;;;7.87;4.08;;;;;;;3.89;63.80;99682.89;1692034;83;25986;-76
2022/03/31 09:11:33;;;;;;;7.17;4.25;;;;;;;3.97;63.31;99683.36;1699849;83;25934;-76
2022/03/31 09:14:04;;;;;;;7.72;4.35;;;;;;;3.96;62.32;99686.50;1690434;83;25776;-76
2022/03/31 09:16:37;;;;;;;4.78;3.75;;;;;;;3.96;62.28;99685.70;1694260;83;27486;-76
2022/03/31 09:19:09;;;;;;;9.00;4.05;;;;;;;4.01;60.97;99689.98;1696149;83;25793;-76
2022/03/31 09:21:35;;;;;;;6.65;3.98;;;;;;;4.04;61.35;99689.17;1693381;83;26516;-76
2022/03/31 09:24:02;;;;;;;6.28;3.62;;;;;;;4.10;61.72;99692.95;1703733;82;26634;-76
2022/03/31 09:26:31;;;;;;;6.28;4.40;;;;;;;4.19;61.89;99685.33;1692142;83;26010;-77
2022/03/31 09:29:11;;;;;;;6.97;3.98;;;;;;;4.27;61.82;99682.17;1697959;83;27473;-76
2022/03/31 09:31:37;;;;;;;8.65;4.22;;;;;;;4.38;61.42;99690.27;1681760;84;34913;-77
2022/03/31 09:34:03;;;;;;;4.92;3.50;;;;;;;4.44;60.94;99686.93;1694550;83;25281;-76
2022/03/31 09:36:30;;;;;;;5.30;3.90;;;;;;;4.51;60.53;99682.09;1692322;84;25847;-76
2022/03/31 09:39:05;;;;;;;7.28;4.33;;;;;;;4.58;59.76;99680.91;1691470;83;25891;-76
2022/03/31 09:41:35;;;;;;;6.58;3.80;;;;;;;4.64;60.39;99685.03;1691966;84;27463;-76
2022/03/31 09:44:09;;;;;;;7.83;3.77;;;;;;;4.71;57.97;99682.53;1682843;84;26557;-76
2022/03/31 09:46:38;;;;;;;8.40;3.40;;;;;;;4.67;57.96;99674.09;1656838;85;26585;-76
2022/03/31 09:49:15;;;;;;;6.58;3.72;;;;;;;4.66;57.06;99682.23;1690907;84;25850;-76
2022/03/31 09:51:46;;;;;;;6.03;3.55;;;;;;;4.66;58.52;99678.25;1676954;84;25318;-76
2022/03/31 09:54:12;;;;;;;4.47;3.08;;;;;;;4.67;58.12;99686.52;1687402;84;27660;-76
2022/03/31 09:56:40;;;;;;;5.72;3.83;;;;;;;4.69;57.50;99689.83;1707669;83;25959;-76
2022/03/31 09:59:11;;;;;;;5.33;3.37;;;;;;;4.70;56.54;99680.36;1728507;81;25768;-76
2022/03/31 10:01:39;;;;;;;8.28;3.85;;;;;;;4.70;57.07;99680.89;1679689;83;25784;-76
2022/03/31 10:04:06;;;;;;;7.17;4.10;;;;;;;4.78;57.86;99674.70;1674211;84;26186;-76
2022/03/31 10:06:36;;;;;;;6.03;3.60;;;;;;;4.86;57.55;99674.17;1689689;84;28196;-76
2022/03/31 10:09:09;;;;;;;5.95;2.95;;;;;;;4.93;56.21;99666.35;1677568;84;26437;-76
2022/03/31 10:11:39;;;;;;;6.87;3.40;;;;;;;5.02;55.79;99664.83;1674690;84;26371;-76
2022/03/31 10:14:40;;;;;;;5.78;3.58;;;;;;;5.13;56.08;99668.39;1691443;84;26526;-76
2022/03/31 10:17:08;;;;;;;8.50;3.42;;;;;;;5.21;55.71;99667.03;1687394;83;25830;-76
2022/03/31 10:19:39;;;;;;;6.70;3.62;;;;;;;5.26;54.64;99659.35;1677271;84;27309;-76
2022/03/31 10:25:08;;;;;;;4.08;3.30;;;;;;;5.32;54.66;99656.52;1681721;84;25924;-76
2022/03/31 10:27:40;;;;;;;3.98;3.25;;;;;;;5.33;54.16;99652.34;1674797;84;26550;-76
2022/03/31 10:30:20;;;;;;;7.90;3.35;;;;;;;5.41;52.95;99652.78;1694286;84;25810;-76
2022/03/31 10:32:59;;;;;;;4.35;2.98;;;;;;;5.44;52.92;99657.75;1667352;83;27478;-76
2022/03/31 10:35:30;;;;;;;5.72;3.25;;;;;;;5.46;53.34;99659.23;1691305;84;25968;-76
2022/03/31 10:38:00;;;;;;;7.87;3.00;;;;;;;5.51;51.51;99653.89;1694302;83;26515;-76
2022/03/31 10:40:42;;;;;;;4.97;2.85;;;;;;;5.55;51.77;99640.08;1693522;83;43860;-76
2022/03/31 10:43:27;;;;;;;5.35;3.05;;;;;;;5.66;51.63;99653.44;1684399;83;25333;-77
2022/03/31 10:45:58;;;;;;;4.42;2.72;;;;;;;5.72;51.09;99662.02;1695044;83;27435;-76
2022/03/31 10:48:28;;;;;;;4.87;2.92;;;;;;;5.71;49.54;99661.72;1680257;83;25829;-76
2022/03/31 10:51:10;;;;;;;5.30;2.50;;;;;;;5.64;50.04;99664.75;1686164;83;25943;-76
2022/03/31 10:53:40;;;;;;;5.17;2.45;;;;;;;5.67;49.41;99665.20;1687971;83;26930;-76
2022/03/31 10:56:26;;;;;;;8.23;3.43;;;;;;;5.72;49.71;99669.99;1687956;83;26101;-77
2022/03/31 10:58:58;;;;;;;6.55;3.35;;;;;;;5.70;49.55;99665.36;1696402;83;28323;-76
2022/03/31 11:01:33;;;;;;;6.12;3.12;;;;;;;5.66;49.81;99662.24;1668486;82;25813;-76
2022/03/31 11:04:08;;;;;;;4.62;2.92;;;;;;;5.64;49.05;99661.59;1688744;83;25955;-76
2022/03/31 11:06:53;;;;;;;4.40;3.10;;;;;;;5.62;49.77;99649.49;1689178;83;25858;-77
2022/03/31 11:09:21;;;;;;;4.28;3.08;;;;;;;5.69;50.70;99647.78;1683066;83;26123;-76
2022/03/31 11:11:51;;;;;;;4.35;3.33;;;;;;;5.78;50.55;99652.00;1675398;84;28309;-77
2022/03/31 11:14:18;;;;;;;4.85;3.00;;;;;;;5.82;49.73;99651.47;1711506;82;25960;-76
2022/03/31 11:16:45;;;;;;;5.62;2.72;;;;;;;5.85;49.42;99651.16;1713281;83;25765;-76
2022/03/31 11:19:13;;;;;;;4.10;2.70;;;;;;;5.87;49.06;99645.65;1712179;83;26529;-76
2022/03/31 11:21:46;;;;;;;6.83;3.45;;;;;;;5.90;48.55;99647.44;1691136;83;25983;-76
2022/03/31 11:24:10;;;;;;;4.58;2.87;;;;;;;5.91;49.11;99644.28;1692391;83;27554;-76
2022/03/31 11:26:48;;;;;;;5.80;2.95;;;;;;;5.94;48.55;99634.14;1703485;83;26045;-77
2022/03/31 11:29:17;;;;;;;5.75;3.08;;;;;;;5.95;48.73;99635.77;1673249;84;25714;-76
2022/03/31 11:31:53;;;;;;;6.58;3.37;;;;;;;5.97;47.91;99635.09;1674601;84;26401;-76
2022/03/31 11:34:25;;;;;;;6.15;3.00;;;;;;;5.95;47.89;99630.95;1691701;84;25795;-76
2022/03/31 11:36:53;;;;;;;7.45;3.72;;;;;;;5.98;48.17;99627.45;1681185;84;27011;-76
2022/03/31 11:39:28;;;;;;;7.83;3.37;;;;;;;6.07;49.44;99626.87;1684366;84;25788;-77
2022/03/31 11:41:57;;;;;;;3.83;3.05;;;;;;;6.19;49.32;99632.05;1682377;84;26628;-76
2022/03/31 11:44:26;;;;;;;6.33;3.58;;;;;;;6.23;48.44;99632.00;1686411;84;26705;-77
2022/03/31 11:46:52;;;;;;;5.17;2.85;;;;;;;6.26;49.05;99634.31;1683069;84;26075;-76
2022/03/31 11:49:25;;;;;;;5.10;3.15;;;;;;;6.28;46.96;99632.79;1684876;84;27452;-76